Ana Sayfa
METAR-TAF:

METAR-TAF

Havaalanları :

Morgantown, Batı Virginia, Amerika Birleşik Devletleri

Enlem: 39-38-58N, Boylam: 079-55-16W, yükseklik: 380 m

Güncel hava durumu gözlemi

Rapor saat 12:53 UTC de 32 dakika önce yapıldı.
Rüzgar güneydan 6 kt
Sıcaklık 26°C
Nem 79%
Basınç 1017 hPa
Görüş mesafesi: 16.1 km
1000 ft yükseklikte az bulutlu

METAR: KMGW 191253Z 19006KT 10SM FEW010 26/22 A3004 RMK AO2 SLP159 T02560222

Saat: 09:25 (13:25 UTC)

Tahmin

Rapor saat 11:25 UTC de 2 saat ve 0 dakika önce yapıldı.
Ayın 19'si saat 12 UTC'den ayın 20'si saat 12 UTC'ye kadar geçerli Tahmin
Rüzgar güney/güneybatıdan 3 kt
Görüş mesafesi: 10 km
25000 ft yükseklikte parçalı bulutlu
Ayın 19'si saat 1700 UTC'den
Rüzgar batı/güneybatıdan 11 kt
Görüş mesafesi: 10 km
3500 ft yükseklikte parçalı bulutlu

TAF: KMGW 191125Z 1912/2012 21003KT P6SM SCT250 FM191700 24011KT P6SM SCT035

4.000'den fazla havaalanı için hava durumu gözlemleri ve tahminleri (METAR ve TAF raporları).

Kullanılabilir istasyonlar harita üzerinde sarı ve kırmızı noktalarla gösterilir.

İstasyonun adını görmek için fareyi noktanın üzerinde gezdirin.

Sonrasında hava gözlem ve tahminlerini görmek için tıklayın.

Haritayı değiştirmek için: yaklaştırmak için siyah artı işaretli yeşil düğmeye ve uzaklaştırmak için de eksi işaretli düğmeye hızla tıklayın; bitişik haritalar için yeşil okları kullanın.


METAR-TAF: